Terminal Aerodrome Forecast
Issued by NWS Cleveland, OH

Home | Current Version | Previous Version | Graphics & Text | Print | Product List | Glossary On
Versions: 1 2 3 4 5 6 7 8 9 10 11 12 13 14
000
FTUS41 KCLE 171300 AAA
TAFERI
TAF AMD
KERI 171322Z 1713/1812 02008KT P6SM SCT015 BKN020
     FM171500 02008KT P6SM SCT035 SCT050
     FM171800 36007KT P6SM SCT040 BKN090
     FM180300 VRB03KT P6SM SCT090=

USA.gov is the U.S. government's official web portal to all federal, state and local government web resources and services.